sensor_id;sensor_type;location;lat;lon;timestamp;P1;durP1;ratioP1;P2;durP2;ratioP2
30519;SDS011;17300;50.374;8.006;2023-01-08T00:01:06;2.83;;;1.67;;
30519;SDS011;17300;50.374;8.006;2023-01-08T00:03:35;1.60;;;1.50;;
30519;SDS011;17300;50.374;8.006;2023-01-08T00:06:03;1.73;;;1.60;;
30519;SDS011;17300;50.374;8.006;2023-01-08T00:08:32;1.50;;;1.40;;
30519;SDS011;17300;50.374;8.006;2023-01-08T00:10:59;1.90;;;1.80;;
30519;SDS011;17300;50.374;8.006;2023-01-08T00:13:28;1.50;;;1.40;;
30519;SDS011;17300;50.374;8.006;2023-01-08T00:15:54;1.80;;;1.60;;
30519;SDS011;17300;50.374;8.006;2023-01-08T00:18:21;1.80;;;1.70;;
30519;SDS011;17300;50.374;8.006;2023-01-08T00:20:48;1.50;;;1.40;;
30519;SDS011;17300;50.374;8.006;2023-01-08T00:23:16;1.60;;;1.50;;
30519;SDS011;17300;50.374;8.006;2023-01-08T00:25:44;1.50;;;1.40;;
30519;SDS011;17300;50.374;8.006;2023-01-08T00:28:11;1.47;;;1.37;;
30519;SDS011;17300;50.374;8.006;2023-01-08T00:30:40;1.50;;;1.40;;
30519;SDS011;17300;50.374;8.006;2023-01-08T00:33:07;1.40;;;1.30;;
30519;SDS011;17300;50.374;8.006;2023-01-08T00:35:34;1.43;;;1.33;;
30519;SDS011;17300;50.374;8.006;2023-01-08T00:38:02;1.40;;;1.30;;
30519;SDS011;17300;50.374;8.006;2023-01-08T00:40:28;1.60;;;1.50;;
30519;SDS011;17300;50.374;8.006;2023-01-08T00:42:55;1.57;;;1.33;;
30519;SDS011;17300;50.374;8.006;2023-01-08T00:45:22;1.40;;;1.30;;
30519;SDS011;17300;50.374;8.006;2023-01-08T00:47:50;1.50;;;1.40;;
30519;SDS011;17300;50.374;8.006;2023-01-08T00:50:17;1.37;;;1.27;;
30519;SDS011;17300;50.374;8.006;2023-01-08T00:52:43;1.33;;;1.30;;
30519;SDS011;17300;50.374;8.006;2023-01-08T00:55:10;2.57;;;1.60;;
30519;SDS011;17300;50.374;8.006;2023-01-08T00:57:37;1.40;;;1.30;;
30519;SDS011;17300;50.374;8.006;2023-01-08T01:00:05;1.73;;;1.50;;
30519;SDS011;17300;50.374;8.006;2023-01-08T01:02:33;1.80;;;1.50;;
30519;SDS011;17300;50.374;8.006;2023-01-08T01:05:02;1.60;;;1.50;;
30519;SDS011;17300;50.374;8.006;2023-01-08T01:07:29;1.37;;;1.27;;
30519;SDS011;17300;50.374;8.006;2023-01-08T01:09:56;1.60;;;1.50;;
30519;SDS011;17300;50.374;8.006;2023-01-08T01:12:23;3.70;;;1.50;;
30519;SDS011;17300;50.374;8.006;2023-01-08T01:14:50;1.60;;;1.50;;
30519;SDS011;17300;50.374;8.006;2023-01-08T01:17:17;1.83;;;1.40;;
30519;SDS011;17300;50.374;8.006;2023-01-08T01:19:44;1.33;;;1.23;;
30519;SDS011;17300;50.374;8.006;2023-01-08T01:22:12;1.47;;;1.37;;
30519;SDS011;17300;50.374;8.006;2023-01-08T01:24:38;1.50;;;1.40;;
30519;SDS011;17300;50.374;8.006;2023-01-08T01:27:05;2.37;;;1.60;;
30519;SDS011;17300;50.374;8.006;2023-01-08T01:29:32;1.53;;;1.43;;
30519;SDS011;17300;50.374;8.006;2023-01-08T01:31:58;1.70;;;1.43;;
30519;SDS011;17300;50.374;8.006;2023-01-08T01:34:25;1.77;;;1.60;;
30519;SDS011;17300;50.374;8.006;2023-01-08T01:36:52;1.73;;;1.63;;
30519;SDS011;17300;50.374;8.006;2023-01-08T01:39:20;1.80;;;1.60;;
30519;SDS011;17300;50.374;8.006;2023-01-08T01:41:47;2.07;;;1.30;;
30519;SDS011;17300;50.374;8.006;2023-01-08T01:47:00;1.60;;;1.50;;
30519;SDS011;17300;50.374;8.006;2023-01-08T01:49:30;1.50;;;1.40;;
30519;SDS011;17300;50.374;8.006;2023-01-08T01:51:58;1.50;;;1.40;;
30519;SDS011;17300;50.374;8.006;2023-01-08T01:54:31;1.97;;;1.77;;
30519;SDS011;17300;50.374;8.006;2023-01-08T01:56:59;1.70;;;1.60;;
30519;SDS011;17300;50.374;8.006;2023-01-08T01:59:26;1.77;;;1.67;;
30519;SDS011;17300;50.374;8.006;2023-01-08T02:01:54;2.13;;;1.70;;
30519;SDS011;17300;50.374;8.006;2023-01-08T02:04:21;1.70;;;1.60;;
30519;SDS011;17300;50.374;8.006;2023-01-08T02:06:50;1.50;;;1.40;;
30519;SDS011;17300;50.374;8.006;2023-01-08T02:09:27;1.60;;;1.50;;
30519;SDS011;17300;50.374;8.006;2023-01-08T02:12:06;1.63;;;1.53;;
30519;SDS011;17300;50.374;8.006;2023-01-08T02:14:42;1.67;;;1.57;;
30519;SDS011;17300;50.374;8.006;2023-01-08T02:17:20;2.07;;;1.50;;
30519;SDS011;17300;50.374;8.006;2023-01-08T02:19:51;1.70;;;1.60;;
30519;SDS011;17300;50.374;8.006;2023-01-08T02:22:25;1.43;;;1.33;;
30519;SDS011;17300;50.374;8.006;2023-01-08T02:25:09;1.37;;;1.27;;
30519;SDS011;17300;50.374;8.006;2023-01-08T02:27:44;1.50;;;1.40;;
30519;SDS011;17300;50.374;8.006;2023-01-08T02:30:14;1.50;;;1.40;;
30519;SDS011;17300;50.374;8.006;2023-01-08T02:32:42;1.70;;;1.53;;
30519;SDS011;17300;50.374;8.006;2023-01-08T02:35:09;1.50;;;1.40;;
30519;SDS011;17300;50.374;8.006;2023-01-08T02:37:36;1.47;;;1.27;;
30519;SDS011;17300;50.374;8.006;2023-01-08T02:40:10;1.10;;;1.10;;
30519;SDS011;17300;50.374;8.006;2023-01-08T02:42:46;1.70;;;1.60;;
30519;SDS011;17300;50.374;8.006;2023-01-08T02:45:22;1.20;;;1.10;;
30519;SDS011;17300;50.374;8.006;2023-01-08T02:47:57;1.80;;;1.20;;
30519;SDS011;17300;50.374;8.006;2023-01-08T02:50:30;1.30;;;1.20;;
30519;SDS011;17300;50.374;8.006;2023-01-08T02:53:01;1.30;;;1.20;;
30519;SDS011;17300;50.374;8.006;2023-01-08T02:55:30;1.60;;;1.30;;
30519;SDS011;17300;50.374;8.006;2023-01-08T02:58:00;1.30;;;1.20;;
30519;SDS011;17300;50.374;8.006;2023-01-08T03:00:29;1.20;;;1.10;;
30519;SDS011;17300;50.374;8.006;2023-01-08T03:03:04;1.10;;;1.00;;
30519;SDS011;17300;50.374;8.006;2023-01-08T03:05:35;1.40;;;1.20;;
30519;SDS011;17300;50.374;8.006;2023-01-08T03:08:05;1.30;;;1.20;;
30519;SDS011;17300;50.374;8.006;2023-01-08T03:10:33;1.20;;;1.10;;
30519;SDS011;17300;50.374;8.006;2023-01-08T03:13:04;1.20;;;1.10;;
30519;SDS011;17300;50.374;8.006;2023-01-08T03:15:35;0.90;;;0.90;;
30519;SDS011;17300;50.374;8.006;2023-01-08T03:18:11;0.90;;;0.90;;
30519;SDS011;17300;50.374;8.006;2023-01-08T03:20:43;1.40;;;1.17;;
30519;SDS011;17300;50.374;8.006;2023-01-08T03:23:12;0.80;;;0.80;;
30519;SDS011;17300;50.374;8.006;2023-01-08T03:25:41;0.90;;;0.90;;
30519;SDS011;17300;50.374;8.006;2023-01-08T03:28:13;1.03;;;1.00;;
30519;SDS011;17300;50.374;8.006;2023-01-08T03:30:43;0.90;;;0.90;;
30519;SDS011;17300;50.374;8.006;2023-01-08T03:33:12;0.90;;;0.90;;
30519;SDS011;17300;50.374;8.006;2023-01-08T03:35:40;0.73;;;0.73;;
30519;SDS011;17300;50.374;8.006;2023-01-08T03:38:10;1.13;;;0.87;;
30519;SDS011;17300;50.374;8.006;2023-01-08T03:40:42;0.80;;;0.80;;
30519;SDS011;17300;50.374;8.006;2023-01-08T03:43:11;0.77;;;0.77;;
30519;SDS011;17300;50.374;8.006;2023-01-08T03:45:41;0.77;;;0.77;;
30519;SDS011;17300;50.374;8.006;2023-01-08T03:48:11;0.80;;;0.80;;
30519;SDS011;17300;50.374;8.006;2023-01-08T03:50:38;0.90;;;0.90;;
30519;SDS011;17300;50.374;8.006;2023-01-08T03:53:06;0.70;;;0.70;;
30519;SDS011;17300;50.374;8.006;2023-01-08T03:55:33;0.70;;;0.70;;
30519;SDS011;17300;50.374;8.006;2023-01-08T03:58:00;0.93;;;0.90;;
30519;SDS011;17300;50.374;8.006;2023-01-08T04:00:28;1.10;;;0.97;;
30519;SDS011;17300;50.374;8.006;2023-01-08T04:02:55;0.80;;;0.80;;
30519;SDS011;17300;50.374;8.006;2023-01-08T04:05:22;1.00;;;0.90;;
30519;SDS011;17300;50.374;8.006;2023-01-08T04:07:48;0.97;;;0.90;;
30519;SDS011;17300;50.374;8.006;2023-01-08T04:10:15;0.70;;;0.70;;
30519;SDS011;17300;50.374;8.006;2023-01-08T04:12:42;0.93;;;0.93;;
30519;SDS011;17300;50.374;8.006;2023-01-08T04:15:09;0.77;;;0.77;;
30519;SDS011;17300;50.374;8.006;2023-01-08T04:17:37;0.70;;;0.70;;
30519;SDS011;17300;50.374;8.006;2023-01-08T04:20:04;0.70;;;0.70;;
30519;SDS011;17300;50.374;8.006;2023-01-08T04:22:32;0.80;;;0.80;;
30519;SDS011;17300;50.374;8.006;2023-01-08T04:24:58;0.90;;;0.80;;
30519;SDS011;17300;50.374;8.006;2023-01-08T04:27:25;0.97;;;0.73;;
30519;SDS011;17300;50.374;8.006;2023-01-08T04:29:52;0.60;;;0.50;;
30519;SDS011;17300;50.374;8.006;2023-01-08T04:32:19;0.70;;;0.70;;
30519;SDS011;17300;50.374;8.006;2023-01-08T04:34:47;0.50;;;0.50;;
30519;SDS011;17300;50.374;8.006;2023-01-08T04:37:13;1.63;;;0.80;;
30519;SDS011;17300;50.374;8.006;2023-01-08T04:39:40;1.27;;;0.50;;
30519;SDS011;17300;50.374;8.006;2023-01-08T04:42:07;0.60;;;0.60;;
30519;SDS011;17300;50.374;8.006;2023-01-08T04:44:33;0.60;;;0.60;;
30519;SDS011;17300;50.374;8.006;2023-01-08T04:47:00;0.50;;;0.50;;
30519;SDS011;17300;50.374;8.006;2023-01-08T04:49:27;0.57;;;0.57;;
30519;SDS011;17300;50.374;8.006;2023-01-08T04:51:55;0.50;;;0.50;;
30519;SDS011;17300;50.374;8.006;2023-01-08T04:54:21;0.60;;;0.60;;
30519;SDS011;17300;50.374;8.006;2023-01-08T04:56:48;0.50;;;0.50;;
30519;SDS011;17300;50.374;8.006;2023-01-08T04:59:16;0.70;;;0.70;;
30519;SDS011;17300;50.374;8.006;2023-01-08T05:01:42;0.57;;;0.57;;
30519;SDS011;17300;50.374;8.006;2023-01-08T05:04:09;0.60;;;0.60;;
30519;SDS011;17300;50.374;8.006;2023-01-08T05:06:36;0.70;;;0.70;;
30519;SDS011;17300;50.374;8.006;2023-01-08T05:09:04;0.60;;;0.53;;
30519;SDS011;17300;50.374;8.006;2023-01-08T05:11:31;1.53;;;0.70;;
30519;SDS011;17300;50.374;8.006;2023-01-08T05:13:57;0.70;;;0.70;;
30519;SDS011;17300;50.374;8.006;2023-01-08T05:16:24;0.93;;;0.80;;
30519;SDS011;17300;50.374;8.006;2023-01-08T05:18:51;0.60;;;0.60;;
30519;SDS011;17300;50.374;8.006;2023-01-08T05:21:17;0.50;;;0.50;;
30519;SDS011;17300;50.374;8.006;2023-01-08T05:23:45;0.57;;;0.50;;
30519;SDS011;17300;50.374;8.006;2023-01-08T05:26:14;0.60;;;0.60;;
30519;SDS011;17300;50.374;8.006;2023-01-08T05:28:41;0.63;;;0.63;;
30519;SDS011;17300;50.374;8.006;2023-01-08T05:31:08;0.63;;;0.60;;
30519;SDS011;17300;50.374;8.006;2023-01-08T05:33:35;0.70;;;0.60;;
30519;SDS011;17300;50.374;8.006;2023-01-08T05:36:03;0.80;;;0.80;;
30519;SDS011;17300;50.374;8.006;2023-01-08T05:38:30;0.90;;;0.70;;
30519;SDS011;17300;50.374;8.006;2023-01-08T05:40:57;0.70;;;0.70;;
30519;SDS011;17300;50.374;8.006;2023-01-08T05:43:25;0.87;;;0.60;;
30519;SDS011;17300;50.374;8.006;2023-01-08T05:45:51;0.70;;;0.70;;
30519;SDS011;17300;50.374;8.006;2023-01-08T05:48:18;0.60;;;0.60;;
30519;SDS011;17300;50.374;8.006;2023-01-08T05:50:47;0.83;;;0.70;;
30519;SDS011;17300;50.374;8.006;2023-01-08T05:53:14;0.60;;;0.60;;
30519;SDS011;17300;50.374;8.006;2023-01-08T05:55:40;0.50;;;0.50;;
30519;SDS011;17300;50.374;8.006;2023-01-08T05:58:07;0.60;;;0.60;;
30519;SDS011;17300;50.374;8.006;2023-01-08T06:00:36;0.80;;;0.67;;
30519;SDS011;17300;50.374;8.006;2023-01-08T06:03:03;0.70;;;0.70;;
30519;SDS011;17300;50.374;8.006;2023-01-08T06:05:30;0.83;;;0.60;;
30519;SDS011;17300;50.374;8.006;2023-01-08T06:07:57;0.60;;;0.60;;
30519;SDS011;17300;50.374;8.006;2023-01-08T06:10:25;0.67;;;0.67;;
30519;SDS011;17300;50.374;8.006;2023-01-08T06:12:52;0.60;;;0.60;;
30519;SDS011;17300;50.374;8.006;2023-01-08T06:15:20;0.70;;;0.70;;
30519;SDS011;17300;50.374;8.006;2023-01-08T06:17:48;0.80;;;0.80;;
30519;SDS011;17300;50.374;8.006;2023-01-08T06:20:14;0.73;;;0.73;;
30519;SDS011;17300;50.374;8.006;2023-01-08T06:22:41;0.50;;;0.50;;
30519;SDS011;17300;50.374;8.006;2023-01-08T06:25:08;0.80;;;0.80;;
30519;SDS011;17300;50.374;8.006;2023-01-08T06:27:35;0.77;;;0.77;;
30519;SDS011;17300;50.374;8.006;2023-01-08T06:30:02;0.80;;;0.80;;
30519;SDS011;17300;50.374;8.006;2023-01-08T06:32:29;0.83;;;0.80;;
30519;SDS011;17300;50.374;8.006;2023-01-08T06:34:57;0.70;;;0.70;;
30519;SDS011;17300;50.374;8.006;2023-01-08T06:37:23;0.70;;;0.70;;
30519;SDS011;17300;50.374;8.006;2023-01-08T06:39:50;0.80;;;0.80;;
30519;SDS011;17300;50.374;8.006;2023-01-08T06:42:17;0.70;;;0.70;;
30519;SDS011;17300;50.374;8.006;2023-01-08T06:44:43;0.97;;;0.90;;
30519;SDS011;17300;50.374;8.006;2023-01-08T06:47:10;0.67;;;0.67;;
30519;SDS011;17300;50.374;8.006;2023-01-08T06:49:36;0.83;;;0.80;;
30519;SDS011;17300;50.374;8.006;2023-01-08T06:52:04;0.83;;;0.80;;
30519;SDS011;17300;50.374;8.006;2023-01-08T06:54:31;1.00;;;1.00;;
30519;SDS011;17300;50.374;8.006;2023-01-08T06:56:58;0.80;;;0.80;;
30519;SDS011;17300;50.374;8.006;2023-01-08T06:59:24;0.90;;;0.90;;
30519;SDS011;17300;50.374;8.006;2023-01-08T07:01:51;0.90;;;0.90;;
30519;SDS011;17300;50.374;8.006;2023-01-08T07:04:18;0.90;;;0.90;;
30519;SDS011;17300;50.374;8.006;2023-01-08T07:06:45;0.80;;;0.80;;
30519;SDS011;17300;50.374;8.006;2023-01-08T07:09:13;1.00;;;0.90;;
30519;SDS011;17300;50.374;8.006;2023-01-08T07:11:40;0.77;;;0.77;;
30519;SDS011;17300;50.374;8.006;2023-01-08T07:14:07;0.90;;;0.90;;
30519;SDS011;17300;50.374;8.006;2023-01-08T07:16:34;1.10;;;0.93;;
30519;SDS011;17300;50.374;8.006;2023-01-08T07:19:01;1.27;;;1.17;;
30519;SDS011;17300;50.374;8.006;2023-01-08T07:21:28;1.10;;;1.00;;
30519;SDS011;17300;50.374;8.006;2023-01-08T07:23:55;1.77;;;1.67;;
30519;SDS011;17300;50.374;8.006;2023-01-08T07:26:24;1.40;;;1.30;;
30519;SDS011;17300;50.374;8.006;2023-01-08T07:28:51;1.40;;;1.27;;
30519;SDS011;17300;50.374;8.006;2023-01-08T07:31:18;1.10;;;1.10;;
30519;SDS011;17300;50.374;8.006;2023-01-08T07:33:45;1.20;;;1.20;;
30519;SDS011;17300;50.374;8.006;2023-01-08T07:36:11;1.20;;;1.10;;
30519;SDS011;17300;50.374;8.006;2023-01-08T07:38:39;1.20;;;1.10;;
30519;SDS011;17300;50.374;8.006;2023-01-08T07:41:06;1.60;;;1.50;;
30519;SDS011;17300;50.374;8.006;2023-01-08T07:43:34;1.03;;;1.03;;
30519;SDS011;17300;50.374;8.006;2023-01-08T07:46:01;1.30;;;1.20;;
30519;SDS011;17300;50.374;8.006;2023-01-08T07:48:28;1.07;;;1.07;;
30519;SDS011;17300;50.374;8.006;2023-01-08T07:50:59;1.30;;;1.20;;
30519;SDS011;17300;50.374;8.006;2023-01-08T07:53:27;1.30;;;1.13;;
30519;SDS011;17300;50.374;8.006;2023-01-08T07:55:57;1.40;;;1.30;;
30519;SDS011;17300;50.374;8.006;2023-01-08T07:58:24;1.10;;;1.10;;
30519;SDS011;17300;50.374;8.006;2023-01-08T08:00:52;1.20;;;1.10;;
30519;SDS011;17300;50.374;8.006;2023-01-08T08:03:19;1.30;;;1.20;;
30519;SDS011;17300;50.374;8.006;2023-01-08T08:05:46;1.37;;;1.20;;
30519;SDS011;17300;50.374;8.006;2023-01-08T08:08:12;2.13;;;1.60;;
30519;SDS011;17300;50.374;8.006;2023-01-08T08:10:39;1.50;;;1.40;;
30519;SDS011;17300;50.374;8.006;2023-01-08T08:13:07;1.00;;;1.00;;
30519;SDS011;17300;50.374;8.006;2023-01-08T08:15:35;1.70;;;1.60;;
30519;SDS011;17300;50.374;8.006;2023-01-08T08:18:04;1.73;;;1.30;;
30519;SDS011;17300;50.374;8.006;2023-01-08T08:20:31;1.30;;;1.20;;
30519;SDS011;17300;50.374;8.006;2023-01-08T08:23:01;0.90;;;0.90;;
30519;SDS011;17300;50.374;8.006;2023-01-08T08:25:28;1.30;;;1.20;;
30519;SDS011;17300;50.374;8.006;2023-01-08T08:27:56;1.30;;;1.20;;
30519;SDS011;17300;50.374;8.006;2023-01-08T08:30:23;1.63;;;1.20;;
30519;SDS011;17300;50.374;8.006;2023-01-08T08:32:51;1.20;;;1.10;;
30519;SDS011;17300;50.374;8.006;2023-01-08T08:35:19;1.20;;;1.10;;
30519;SDS011;17300;50.374;8.006;2023-01-08T08:37:46;0.87;;;0.87;;
30519;SDS011;17300;50.374;8.006;2023-01-08T08:40:13;1.30;;;1.20;;
30519;SDS011;17300;50.374;8.006;2023-01-08T08:42:44;2.13;;;1.30;;
30519;SDS011;17300;50.374;8.006;2023-01-08T08:45:11;1.47;;;1.37;;
30519;SDS011;17300;50.374;8.006;2023-01-08T08:47:38;1.60;;;1.40;;
30519;SDS011;17300;50.374;8.006;2023-01-08T08:50:05;1.80;;;1.60;;
30519;SDS011;17300;50.374;8.006;2023-01-08T08:52:34;1.47;;;1.20;;
30519;SDS011;17300;50.374;8.006;2023-01-08T08:55:01;1.77;;;1.33;;
30519;SDS011;17300;50.374;8.006;2023-01-08T08:57:34;1.27;;;1.20;;
30519;SDS011;17300;50.374;8.006;2023-01-08T09:06:13;1.20;;;1.20;;
30519;SDS011;17300;50.374;8.006;2023-01-08T09:08:41;1.40;;;1.30;;
30519;SDS011;17300;50.374;8.006;2023-01-08T09:11:08;1.47;;;1.37;;
30519;SDS011;17300;50.374;8.006;2023-01-08T09:13:35;1.67;;;1.57;;
30519;SDS011;17300;50.374;8.006;2023-01-08T09:16:02;1.60;;;1.50;;
30519;SDS011;17300;50.374;8.006;2023-01-08T09:18:33;1.83;;;1.73;;
30519;SDS011;17300;50.374;8.006;2023-01-08T09:21:50;2.20;;;2.00;;
30519;SDS011;17300;50.374;8.006;2023-01-08T09:24:18;1.90;;;1.80;;
30519;SDS011;17300;50.374;8.006;2023-01-08T09:26:45;1.70;;;1.60;;
30519;SDS011;17300;50.374;8.006;2023-01-08T09:29:12;1.93;;;1.63;;
30519;SDS011;17300;50.374;8.006;2023-01-08T09:31:53;6.30;;;1.60;;
30519;SDS011;17300;50.374;8.006;2023-01-08T09:34:21;1.53;;;1.40;;
30519;SDS011;17300;50.374;8.006;2023-01-08T09:43:08;1.80;;;1.70;;
30519;SDS011;17300;50.374;8.006;2023-01-08T09:45:41;2.03;;;1.93;;
30519;SDS011;17300;50.374;8.006;2023-01-08T09:49:18;1.80;;;1.70;;
30519;SDS011;17300;50.374;8.006;2023-01-08T09:51:49;2.67;;;1.87;;
30519;SDS011;17300;50.374;8.006;2023-01-08T09:54:16;2.10;;;2.00;;
30519;SDS011;17300;50.374;8.006;2023-01-08T09:56:44;2.40;;;2.20;;
30519;SDS011;17300;50.374;8.006;2023-01-08T09:59:11;2.03;;;1.83;;
30519;SDS011;17300;50.374;8.006;2023-01-08T10:01:42;1.77;;;1.67;;
30519;SDS011;17300;50.374;8.006;2023-01-08T10:04:13;1.80;;;1.70;;
30519;SDS011;17300;50.374;8.006;2023-01-08T10:06:43;1.90;;;1.80;;
30519;SDS011;17300;50.374;8.006;2023-01-08T10:09:15;1.60;;;1.50;;
30519;SDS011;17300;50.374;8.006;2023-01-08T10:11:43;1.57;;;1.47;;
30519;SDS011;17300;50.374;8.006;2023-01-08T10:14:16;1.70;;;1.50;;
30519;SDS011;17300;50.374;8.006;2023-01-08T10:16:47;1.60;;;1.50;;
30519;SDS011;17300;50.374;8.006;2023-01-08T10:19:32;1.30;;;1.20;;
30519;SDS011;17300;50.374;8.006;2023-01-08T10:21:58;1.30;;;1.20;;
30519;SDS011;17300;50.374;8.006;2023-01-08T10:24:32;1.83;;;1.70;;
30519;SDS011;17300;50.374;8.006;2023-01-08T10:27:12;1.10;;;1.10;;
30519;SDS011;17300;50.374;8.006;2023-01-08T10:29:40;1.00;;;1.00;;
30519;SDS011;17300;50.374;8.006;2023-01-08T10:32:08;0.80;;;0.80;;
30519;SDS011;17300;50.374;8.006;2023-01-08T10:34:40;0.83;;;0.60;;
30519;SDS011;17300;50.374;8.006;2023-01-08T10:37:13;0.70;;;0.70;;
30519;SDS011;17300;50.374;8.006;2023-01-08T10:39:44;0.80;;;0.70;;
30519;SDS011;17300;50.374;8.006;2023-01-08T10:42:13;0.50;;;0.50;;
30519;SDS011;17300;50.374;8.006;2023-01-08T10:44:45;0.50;;;0.50;;
30519;SDS011;17300;50.374;8.006;2023-01-08T10:47:22;0.50;;;0.40;;
30519;SDS011;17300;50.374;8.006;2023-01-08T10:49:50;0.33;;;0.33;;
30519;SDS011;17300;50.374;8.006;2023-01-08T10:52:23;0.30;;;0.30;;
30519;SDS011;17300;50.374;8.006;2023-01-08T10:54:52;0.50;;;0.50;;
30519;SDS011;17300;50.374;8.006;2023-01-08T10:57:22;0.60;;;0.60;;
30519;SDS011;17300;50.374;8.006;2023-01-08T10:59:51;0.60;;;0.60;;
30519;SDS011;17300;50.374;8.006;2023-01-08T11:02:25;0.50;;;0.50;;
30519;SDS011;17300;50.374;8.006;2023-01-08T11:05:07;0.70;;;0.63;;
30519;SDS011;17300;50.374;8.006;2023-01-08T11:07:35;0.30;;;0.30;;
30519;SDS011;17300;50.374;8.006;2023-01-08T11:10:04;0.40;;;0.40;;
30519;SDS011;17300;50.374;8.006;2023-01-08T11:12:34;0.43;;;0.43;;
30519;SDS011;17300;50.374;8.006;2023-01-08T11:15:04;0.40;;;0.40;;
30519;SDS011;17300;50.374;8.006;2023-01-08T11:17:32;0.40;;;0.40;;
30519;SDS011;17300;50.374;8.006;2023-01-08T11:20:09;0.40;;;0.40;;
30519;SDS011;17300;50.374;8.006;2023-01-08T11:22:45;0.50;;;0.50;;
30519;SDS011;17300;50.374;8.006;2023-01-08T11:25:12;0.40;;;0.40;;
30519;SDS011;17300;50.374;8.006;2023-01-08T11:27:47;0.37;;;0.37;;
30519;SDS011;17300;50.374;8.006;2023-01-08T11:30:16;0.40;;;0.40;;
30519;SDS011;17300;50.374;8.006;2023-01-08T11:32:48;0.50;;;0.30;;
30519;SDS011;17300;50.374;8.006;2023-01-08T11:35:27;0.70;;;0.40;;
30519;SDS011;17300;50.374;8.006;2023-01-08T11:48:25;1.37;;;0.40;;
30519;SDS011;17300;50.374;8.006;2023-01-08T11:51:41;0.47;;;0.47;;
30519;SDS011;17300;50.374;8.006;2023-01-08T11:57:57;0.60;;;0.50;;
30519;SDS011;17300;50.374;8.006;2023-01-08T12:01:16;0.50;;;0.50;;
30519;SDS011;17300;50.374;8.006;2023-01-08T12:04:16;0.70;;;0.70;;
30519;SDS011;17300;50.374;8.006;2023-01-08T12:06:53;0.47;;;0.40;;
30519;SDS011;17300;50.374;8.006;2023-01-08T12:09:28;0.43;;;0.40;;
30519;SDS011;17300;50.374;8.006;2023-01-08T12:12:05;0.40;;;0.40;;
30519;SDS011;17300;50.374;8.006;2023-01-08T12:14:45;0.63;;;0.40;;
30519;SDS011;17300;50.374;8.006;2023-01-08T12:20:31;0.50;;;0.50;;
30519;SDS011;17300;50.374;8.006;2023-01-08T12:23:06;0.40;;;0.40;;
30519;SDS011;17300;50.374;8.006;2023-01-08T12:25:51;0.50;;;0.50;;
30519;SDS011;17300;50.374;8.006;2023-01-08T12:28:42;0.40;;;0.40;;
30519;SDS011;17300;50.374;8.006;2023-01-08T12:31:30;0.30;;;0.30;;
30519;SDS011;17300;50.374;8.006;2023-01-08T12:34:09;0.50;;;0.50;;
30519;SDS011;17300;50.374;8.006;2023-01-08T12:36:40;0.57;;;0.50;;
30519;SDS011;17300;50.374;8.006;2023-01-08T12:39:12;0.40;;;0.40;;
30519;SDS011;17300;50.374;8.006;2023-01-08T12:41:44;0.50;;;0.50;;
30519;SDS011;17300;50.374;8.006;2023-01-08T12:44:15;0.53;;;0.40;;
30519;SDS011;17300;50.374;8.006;2023-01-08T12:46:46;0.83;;;0.60;;
30519;SDS011;17300;50.374;8.006;2023-01-08T12:49:16;0.50;;;0.50;;
30519;SDS011;17300;50.374;8.006;2023-01-08T12:51:55;0.40;;;0.40;;
30519;SDS011;17300;50.374;8.006;2023-01-08T12:54:28;0.33;;;0.33;;
30519;SDS011;17300;50.374;8.006;2023-01-08T12:57:01;0.40;;;0.40;;
30519;SDS011;17300;50.374;8.006;2023-01-08T12:59:36;0.70;;;0.70;;
30519;SDS011;17300;50.374;8.006;2023-01-08T13:02:14;0.60;;;0.40;;
30519;SDS011;17300;50.374;8.006;2023-01-08T13:04:55;0.60;;;0.60;;
30519;SDS011;17300;50.374;8.006;2023-01-08T13:07:24;1.07;;;0.50;;
30519;SDS011;17300;50.374;8.006;2023-01-08T13:09:54;0.63;;;0.50;;
30519;SDS011;17300;50.374;8.006;2023-01-08T13:12:25;0.40;;;0.40;;
30519;SDS011;17300;50.374;8.006;2023-01-08T13:14:58;0.40;;;0.40;;
30519;SDS011;17300;50.374;8.006;2023-01-08T13:17:25;0.70;;;0.70;;
30519;SDS011;17300;50.374;8.006;2023-01-08T13:19:54;0.50;;;0.50;;
30519;SDS011;17300;50.374;8.006;2023-01-08T13:22:26;0.40;;;0.40;;
30519;SDS011;17300;50.374;8.006;2023-01-08T13:25:08;0.37;;;0.37;;
30519;SDS011;17300;50.374;8.006;2023-01-08T14:14:54;0.50;;;0.50;;
30519;SDS011;17300;50.374;8.006;2023-01-08T14:17:24;0.40;;;0.30;;
30519;SDS011;17300;50.374;8.006;2023-01-08T14:19:55;0.40;;;0.40;;
30519;SDS011;17300;50.374;8.006;2023-01-08T14:22:23;0.90;;;0.50;;
30519;SDS011;17300;50.374;8.006;2023-01-08T14:24:54;0.60;;;0.40;;
30519;SDS011;17300;50.374;8.006;2023-01-08T14:27:23;0.40;;;0.40;;
30519;SDS011;17300;50.374;8.006;2023-01-08T14:29:51;0.30;;;0.30;;
30519;SDS011;17300;50.374;8.006;2023-01-08T14:32:20;0.50;;;0.50;;
30519;SDS011;17300;50.374;8.006;2023-01-08T14:34:49;0.80;;;0.50;;
30519;SDS011;17300;50.374;8.006;2023-01-08T14:37:17;0.43;;;0.40;;
30519;SDS011;17300;50.374;8.006;2023-01-08T14:39:45;0.40;;;0.40;;
30519;SDS011;17300;50.374;8.006;2023-01-08T14:42:16;0.40;;;0.40;;
30519;SDS011;17300;50.374;8.006;2023-01-08T14:45:03;0.80;;;0.50;;
30519;SDS011;17300;50.374;8.006;2023-01-08T14:47:35;1.13;;;0.60;;
30519;SDS011;17300;50.374;8.006;2023-01-08T14:50:05;0.80;;;0.53;;
30519;SDS011;17300;50.374;8.006;2023-01-08T14:52:32;0.40;;;0.40;;
30519;SDS011;17300;50.374;8.006;2023-01-08T14:55:00;0.40;;;0.40;;
30519;SDS011;17300;50.374;8.006;2023-01-08T14:57:28;0.60;;;0.60;;
30519;SDS011;17300;50.374;8.006;2023-01-08T14:59:55;1.03;;;0.60;;
30519;SDS011;17300;50.374;8.006;2023-01-08T15:02:25;0.60;;;0.60;;
30519;SDS011;17300;50.374;8.006;2023-01-08T15:05:14;0.80;;;0.70;;
30519;SDS011;17300;50.374;8.006;2023-01-08T15:07:43;0.90;;;0.70;;
30519;SDS011;17300;50.374;8.006;2023-01-08T15:10:22;0.60;;;0.60;;
30519;SDS011;17300;50.374;8.006;2023-01-08T15:13:00;0.60;;;0.60;;
30519;SDS011;17300;50.374;8.006;2023-01-08T15:15:30;0.70;;;0.70;;
30519;SDS011;17300;50.374;8.006;2023-01-08T15:17:58;1.07;;;0.70;;
30519;SDS011;17300;50.374;8.006;2023-01-08T15:20:28;1.13;;;0.70;;
30519;SDS011;17300;50.374;8.006;2023-01-08T15:22:56;0.67;;;0.60;;
30519;SDS011;17300;50.374;8.006;2023-01-08T15:25:24;0.60;;;0.60;;
30519;SDS011;17300;50.374;8.006;2023-01-08T15:27:53;1.20;;;0.87;;
30519;SDS011;17300;50.374;8.006;2023-01-08T15:30:24;1.13;;;0.70;;
30519;SDS011;17300;50.374;8.006;2023-01-08T15:33:04;1.20;;;0.90;;
30519;SDS011;17300;50.374;8.006;2023-01-08T15:35:34;0.70;;;0.70;;
30519;SDS011;17300;50.374;8.006;2023-01-08T15:38:00;0.73;;;0.73;;
30519;SDS011;17300;50.374;8.006;2023-01-08T15:40:27;0.90;;;0.87;;
30519;SDS011;17300;50.374;8.006;2023-01-08T15:42:54;0.97;;;0.60;;
30519;SDS011;17300;50.374;8.006;2023-01-08T15:45:36;0.90;;;0.90;;
30519;SDS011;17300;50.374;8.006;2023-01-08T15:48:04;0.90;;;0.80;;
30519;SDS011;17300;50.374;8.006;2023-01-08T15:50:31;1.20;;;1.10;;
30519;SDS011;17300;50.374;8.006;2023-01-08T15:53:03;1.53;;;0.90;;
30519;SDS011;17300;50.374;8.006;2023-01-08T15:55:31;0.80;;;0.80;;
30519;SDS011;17300;50.374;8.006;2023-01-08T15:57:58;1.03;;;0.90;;
30519;SDS011;17300;50.374;8.006;2023-01-08T16:00:25;0.90;;;0.80;;
30519;SDS011;17300;50.374;8.006;2023-01-08T16:02:52;1.90;;;0.97;;
30519;SDS011;17300;50.374;8.006;2023-01-08T16:05:20;1.00;;;0.90;;
30519;SDS011;17300;50.374;8.006;2023-01-08T16:07:47;0.90;;;0.87;;
30519;SDS011;17300;50.374;8.006;2023-01-08T16:10:16;0.90;;;0.90;;
30519;SDS011;17300;50.374;8.006;2023-01-08T16:12:43;0.63;;;0.53;;
30519;SDS011;17300;50.374;8.006;2023-01-08T16:15:11;0.90;;;0.90;;
30519;SDS011;17300;50.374;8.006;2023-01-08T16:17:39;0.80;;;0.80;;
30519;SDS011;17300;50.374;8.006;2023-01-08T16:20:06;0.93;;;0.80;;
30519;SDS011;17300;50.374;8.006;2023-01-08T16:22:34;1.37;;;0.87;;
30519;SDS011;17300;50.374;8.006;2023-01-08T16:25:01;0.83;;;0.80;;